Time;durP1;ratioP1;P1;durP2;ratioP2;P2;SDS_P1;SDS_P2;PMS_P1;PMS_P2;Temp;Humidity;BMP_temperature;BMP_pressure;BME280_temperature;BME280_humidity;BME280_pressure;Samples;Min_cycle;Max_cycle;Signal;HPM_P1;HPM_P2
2023/09/02 00:00:10;;;;;;;1.65;0.70;;;;;;;18.01;93.56;99572.28;339794;28;4472;-72
2023/09/02 00:00:22;;;;;;;0.98;0.55;;;;;;;17.95;94.15;99566.50;338205;28;12261;-72
2023/09/02 00:00:34;;;;;;;1.00;0.43;;;;;;;17.89;94.62;99577.41;337465;28;19255;-74
2023/09/02 00:00:47;;;;;;;0.80;0.50;;;;;;;17.91;95.08;99574.69;339614;28;5655;-73
2023/09/02 00:00:59;;;;;;;0.50;0.50;;;;;;;17.90;95.15;99568.56;336517;28;18278;-73
2023/09/02 00:01:11;;;;;;;0.60;0.50;;;;;;;17.92;95.39;99577.19;339434;28;5405;-73
2023/09/02 00:01:23;;;;;;;0.50;0.50;;;;;;;17.89;95.07;99577.41;337040;28;19167;-73
2023/09/02 00:01:35;;;;;;;0.60;0.57;;;;;;;17.82;95.17;99570.81;338949;28;4578;-73
2023/09/02 00:01:49;;;;;;;0.88;0.60;;;;;;;17.74;95.48;99584.44;336715;28;17730;-74
2023/09/02 00:02:02;;;;;;;1.00;0.60;;;;;;;17.77;95.49;99579.00;338181;28;5993;-73
2023/09/02 00:02:14;;;;;;;0.90;0.50;;;;;;;17.73;95.51;99576.69;335705;28;18054;-73
2023/09/02 00:02:26;;;;;;;0.68;0.43;;;;;;;17.78;95.58;99571.94;339984;28;4486;-72
2023/09/02 00:02:38;;;;;;;0.70;0.40;;;;;;;17.76;95.57;99571.22;336768;28;16422;-74
2023/09/02 00:02:50;;;;;;;0.50;0.47;;;;;;;17.72;95.94;99569.72;339598;28;4552;-74
2023/09/02 00:03:02;;;;;;;0.70;0.60;;;;;;;17.73;97.14;99572.25;339484;28;5258;-75
2023/09/02 00:03:14;;;;;;;1.08;0.60;;;;;;;17.75;97.51;99573.00;336763;28;12404;-74
2023/09/02 00:03:27;;;;;;;0.90;0.50;;;;;;;17.81;97.88;99574.41;334261;28;5042;-75
2023/09/02 00:03:39;;;;;;;0.88;0.50;;;;;;;17.88;97.69;99569.63;337195;28;16883;-74
2023/09/02 00:03:51;;;;;;;0.65;0.43;;;;;;;17.96;97.26;99570.81;340356;28;4620;-74
2023/09/02 00:04:03;;;;;;;0.50;0.50;;;;;;;18.03;96.76;99567.78;340191;28;4535;-75
2023/09/02 00:04:15;;;;;;;0.80;0.60;;;;;;;18.10;96.36;99569.06;338835;28;17869;-74
2023/09/02 00:04:28;;;;;;;0.57;0.50;;;;;;;18.16;96.34;99566.03;340648;28;4795;-74
2023/09/02 00:04:40;;;;;;;0.50;0.50;;;;;;;18.22;95.79;99568.28;338133;28;18104;-74
2023/09/02 00:04:52;;;;;;;0.55;0.50;;;;;;;18.28;95.46;99569.66;341509;28;4723;-73
2023/09/02 00:05:04;;;;;;;0.68;0.50;;;;;;;18.33;95.16;99571.06;337988;28;12427;-73
2023/09/02 00:05:16;;;;;;;0.68;0.50;;;;;;;18.38;94.97;99572.53;338988;28;4584;-73
2023/09/02 00:05:28;;;;;;;0.70;0.50;;;;;;;18.42;94.77;99574.00;337515;28;13741;-73
2023/09/02 00:05:40;;;;;;;0.63;0.50;;;;;;;18.43;95.02;99570.41;339360;28;4498;-73
2023/09/02 00:05:53;;;;;;;0.70;0.45;;;;;;;18.46;94.89;99571.06;340084;28;4524;-73
2023/09/02 00:06:05;;;;;;;0.80;0.50;;;;;;;18.48;94.87;99563.06;336697;28;18150;-73
2023/09/02 00:06:17;;;;;;;0.85;0.60;;;;;;;18.51;94.42;99568.13;338938;28;4501;-73
2023/09/02 00:06:29;;;;;;;0.98;0.52;;;;;;;18.52;94.70;99568.03;338756;28;4650;-73
2023/09/02 00:06:41;;;;;;;1.33;0.60;;;;;;;18.54;94.53;99565.28;337415;28;18056;-72
2023/09/02 00:06:54;;;;;;;1.30;0.70;;;;;;;18.57;94.41;99562.44;340075;28;4984;-73
2023/09/02 00:07:06;;;;;;;0.68;0.60;;;;;;;18.58;94.47;99572.03;336908;28;18629;-73
2023/09/02 00:07:18;;;;;;;0.70;0.50;;;;;;;18.61;94.38;99577.09;338312;28;4546;-72
2023/09/02 00:07:30;;;;;;;1.05;0.60;;;;;;;18.62;94.33;99570.06;336277;28;18027;-73
2023/09/02 00:07:42;;;;;;;3.20;0.80;;;;;;;18.63;94.23;99567.28;339993;28;4499;-72
2023/09/02 00:07:54;;;;;;;2.95;0.70;;;;;;;18.66;94.12;99574.16;339958;28;6075;-73
2023/09/02 00:08:06;;;;;;;1.00;0.50;;;;;;;18.68;93.95;99564.38;335792;28;18060;-73
2023/09/02 00:08:18;;;;;;;0.65;0.50;;;;;;;18.72;93.84;99571.13;339627;28;4563;-72
2023/09/02 00:08:30;;;;;;;0.52;0.40;;;;;;;18.74;93.53;99567.41;337308;28;18189;-73
2023/09/02 00:08:42;;;;;;;0.75;0.43;;;;;;;18.75;93.50;99571.75;340034;28;5535;-73
2023/09/02 00:08:54;;;;;;;1.63;0.43;;;;;;;18.79;93.29;99566.25;338624;28;10746;-73
2023/09/02 00:09:06;;;;;;;1.63;0.50;;;;;;;18.80;93.17;99566.19;335778;28;19116;-73
2023/09/02 00:09:18;;;;;;;1.50;0.50;;;;;;;18.81;92.91;99567.88;333961;28;4711;-73
2023/09/02 00:09:30;;;;;;;0.57;0.50;;;;;;;18.84;92.89;99566.84;336920;28;11709;-73
2023/09/02 00:09:42;;;;;;;1.92;0.60;;;;;;;18.85;92.80;99571.16;340078;28;4470;-73
2023/09/02 00:09:54;;;;;;;2.10;0.60;;;;;;;18.86;92.72;99572.84;339986;28;5214;-74
2023/09/02 00:10:08;;;;;;;1.30;0.60;;;;;;;18.87;92.44;99571.88;335863;28;18170;-74
2023/09/02 00:10:20;;;;;;;0.60;0.60;;;;;;;18.90;92.20;99569.06;336237;28;12524;-74
2023/09/02 00:10:32;;;;;;;0.88;0.68;;;;;;;18.92;92.26;99572.44;335431;28;4617;-74
2023/09/02 00:10:44;;;;;;;0.77;0.52;;;;;;;18.93;92.20;99574.09;340147;28;5165;-74
2023/09/02 00:10:56;;;;;;;1.85;0.50;;;;;;;18.93;91.86;99572.31;334040;28;18263;-74
2023/09/02 00:11:08;;;;;;;2.67;0.50;;;;;;;18.94;91.83;99567.91;339378;28;4629;-74
2023/09/02 00:11:21;;;;;;;2.75;0.40;;;;;;;18.95;91.69;99577.47;335918;28;11486;-74
2023/09/02 00:11:33;;;;;;;0.43;0.40;;;;;;;18.95;91.82;99567.78;340274;28;4618;-74
2023/09/02 00:11:45;;;;;;;0.60;0.40;;;;;;;18.96;91.56;99564.19;337032;28;7626;-73
2023/09/02 00:11:57;;;;;;;0.60;0.40;;;;;;;18.99;91.38;99573.66;335451;28;14763;-73
2023/09/02 00:12:09;;;;;;;4.00;0.50;;;;;;;19.00;91.40;99570.09;334628;28;4566;-73
2023/09/02 00:12:21;;;;;;;4.20;0.70;;;;;;;19.00;91.24;99570.09;338555;28;5355;-73
2023/09/02 00:12:33;;;;;;;3.20;0.68;;;;;;;19.02;91.29;99573.47;335754;28;17991;-73
2023/09/02 00:12:45;;;;;;;1.13;0.70;;;;;;;19.04;91.25;99579.47;338852;28;5169;-74
2023/09/02 00:12:57;;;;;;;0.80;0.50;;;;;;;19.06;91.12;99569.69;336050;28;18076;-74
2023/09/02 00:13:09;;;;;;;1.50;0.50;;;;;;;19.07;91.02;99570.50;339219;28;5577;-74
2023/09/02 00:13:21;;;;;;;1.13;0.47;;;;;;;19.08;90.82;99567.78;339867;28;5139;-74
2023/09/02 00:13:33;;;;;;;0.80;0.80;;;;;;;19.11;91.02;99572.00;332685;28;18542;-74
2023/09/02 00:13:45;;;;;;;0.90;0.90;;;;;;;19.10;90.83;99571.16;340311;28;5168;-74
2023/09/02 00:13:57;;;;;;;1.90;0.90;;;;;;;19.11;90.50;99570.19;337594;28;4658;-74
2023/09/02 00:14:09;;;;;;;1.52;0.50;;;;;;;19.12;90.56;99569.25;339415;28;5478;-72
2023/09/02 00:14:21;;;;;;;0.50;0.40;;;;;;;19.12;90.59;99577.16;339948;28;5048;-73
2023/09/02 00:14:33;;;;;;;0.60;0.43;;;;;;;19.12;90.52;99574.53;337679;28;18304;-75
2023/09/02 00:14:45;;;;;;;0.90;0.50;;;;;;;19.13;90.35;99576.19;340143;28;4518;-74
2023/09/02 00:14:57;;;;;;;0.85;0.60;;;;;;;19.14;90.27;99571.78;339613;28;4596;-74
2023/09/02 00:15:11;;;;;;;0.70;0.50;;;;;;;19.15;90.00;99573.47;332821;28;17427;-74
2023/09/02 00:15:23;;;;;;;0.65;0.50;;;;;;;19.15;89.89;99571.66;336304;28;17831;-75
2023/09/02 00:15:35;;;;;;;0.73;0.50;;;;;;;19.16;89.80;99573.34;339522;28;4972;-74
2023/09/02 00:15:47;;;;;;;1.20;0.50;;;;;;;19.18;89.69;99569.78;337253;28;12088;-74
2023/09/02 00:15:59;;;;;;;1.10;0.40;;;;;;;19.19;89.78;99568.81;340296;28;5738;-73
2023/09/02 00:16:13;;;;;;;0.50;0.40;;;;;;;19.20;89.68;99575.78;339180;28;4722;-73
2023/09/02 00:16:25;;;;;;;0.68;0.40;;;;;;;19.20;89.63;99570.53;336331;28;17560;-73
2023/09/02 00:16:37;;;;;;;0.73;0.40;;;;;;;19.20;89.40;99575.78;339701;28;5401;-73
2023/09/02 00:16:49;;;;;;;0.80;0.50;;;;;;;19.20;89.42;99575.78;336900;28;18068;-73
2023/09/02 00:17:01;;;;;;;1.67;0.57;;;;;;;19.18;89.47;99575.06;339625;28;5204;-72
2023/09/02 00:17:13;;;;;;;1.80;0.60;;;;;;;19.20;89.71;99573.16;337752;28;18284;-73
2023/09/02 00:17:31;;;;;;;1.10;0.60;;;;;;;19.21;89.21;99573.03;336924;28;19203;-73
2023/09/02 00:17:43;;;;;;;0.80;0.60;;;;;;;19.22;89.46;99568.63;340038;28;11099;-72
2023/09/02 00:17:55;;;;;;;0.82;0.60;;;;;;;19.21;89.32;99573.03;337756;28;18076;-73
2023/09/02 00:18:07;;;;;;;2.30;0.55;;;;;;;19.21;89.23;99567.75;339743;28;4689;-73
2023/09/02 00:18:19;;;;;;;2.20;0.47;;;;;;;19.22;89.19;99573.91;337031;28;18373;-74
2023/09/02 00:18:31;;;;;;;1.55;0.50;;;;;;;19.24;89.01;99574.63;339758;28;5375;-74
2023/09/02 00:18:44;;;;;;;1.30;0.50;;;;;;;19.23;89.08;99570.28;339817;28;4625;-74
2023/09/02 00:18:56;;;;;;;0.55;0.40;;;;;;;19.24;89.08;99572.00;334870;28;17990;-74
2023/09/02 00:19:08;;;;;;;0.40;0.40;;;;;;;19.24;89.06;99577.25;338976;28;4802;-73
2023/09/02 00:19:21;;;;;;;0.70;0.50;;;;;;;19.25;89.10;99573.66;331529;28;18286;-73
2023/09/02 00:19:33;;;;;;;0.90;0.52;;;;;;;19.25;88.99;99573.66;339409;28;4568;-74
2023/09/02 00:19:45;;;;;;;1.50;0.50;;;;;;;19.24;89.11;99572.00;336881;28;18056;-73
2023/09/02 00:19:57;;;;;;;1.50;0.50;;;;;;;19.24;89.20;99572.00;339537;28;4716;-74
2023/09/02 00:20:10;;;;;;;0.77;0.50;;;;;;;19.24;89.07;99577.25;338503;28;5405;-73
2023/09/02 00:20:22;;;;;;;0.60;0.50;;;;;;;19.23;88.98;99575.56;340113;28;4600;-73
2023/09/02 00:20:34;;;;;;;0.60;0.50;;;;;;;19.22;89.14;99576.53;337214;28;12091;-73
2023/09/02 00:20:46;;;;;;;0.77;0.63;;;;;;;19.22;89.18;99576.53;339622;28;4986;-73
2023/09/02 00:20:59;;;;;;;0.65;0.50;;;;;;;19.22;88.84;99579.16;323149;28;5422;-73
2023/09/02 00:21:12;;;;;;;0.90;0.50;;;;;;;19.22;88.87;99576.53;338823;28;4486;-72
2023/09/02 00:21:24;;;;;;;1.10;0.50;;;;;;;19.23;88.67;99570.28;339850;28;4551;-73
2023/09/02 00:21:37;;;;;;;1.90;0.60;;;;;;;19.23;88.68;99578.19;333444;28;18531;-73
2023/09/02 00:21:49;;;;;;;1.80;0.60;;;;;;;19.24;88.62;99578.09;339477;28;4916;-74
2023/09/02 00:22:01;;;;;;;1.00;0.60;;;;;;;19.24;88.53;99572.00;337455;28;17637;-74
2023/09/02 00:22:13;;;;;;;1.00;0.60;;;;;;;19.25;88.58;99578.94;339790;28;5780;-74
2023/09/02 00:22:25;;;;;;;1.00;0.60;;;;;;;19.26;88.59;99583.28;336102;28;5051;-74
2023/09/02 00:22:37;;;;;;;1.00;0.57;;;;;;;19.25;88.64;99573.66;339467;28;4891;-74
2023/09/02 00:22:49;;;;;;;1.08;0.50;;;;;;;19.26;88.55;99578.00;338434;28;4652;-74
2023/09/02 00:23:01;;;;;;;0.93;0.50;;;;;;;19.26;88.63;99578.00;336161;28;18311;-73
2023/09/02 00:23:13;;;;;;;0.90;0.50;;;;;;;19.26;88.60;99576.19;339723;28;5130;-73
2023/09/02 00:23:25;;;;;;;0.65;0.50;;;;;;;19.27;88.67;99582.31;336924;28;18079;-74
2023/09/02 00:23:43;;;;;;;0.70;0.50;;;;;;;19.27;88.52;99571.75;340164;28;5232;-74
2023/09/02 00:24:03;;;;;;;0.70;0.50;;;;;;;19.26;88.45;99570.09;334478;28;17655;-75
2023/09/02 00:24:15;;;;;;;0.50;0.50;;;;;;;19.26;88.32;99575.38;336009;28;17945;-74
2023/09/02 00:24:27;;;;;;;1.00;0.50;;;;;;;19.26;88.30;99570.09;336064;28;18232;-74
2023/09/02 00:24:39;;;;;;;0.93;0.50;;;;;;;19.27;88.24;99579.66;338746;28;4696;-73
2023/09/02 00:24:51;;;;;;;0.70;0.50;;;;;;;19.26;88.30;99581.47;336964;28;4599;-74
2023/09/02 00:25:03;;;;;;;1.15;0.50;;;;;;;19.26;88.32;99572.72;338989;28;5261;-74
2023/09/02 00:25:15;;;;;;;1.10;0.50;;;;;;;19.25;88.40;99581.56;338803;28;5394;-75
2023/09/02 00:25:27;;;;;;;0.68;0.50;;;;;;;19.23;88.37;99576.41;330968;28;18076;-74
2023/09/02 00:25:39;;;;;;;0.55;0.52;;;;;;;19.25;88.40;99578.94;338311;28;4636;-74
2023/09/02 00:25:51;;;;;;;0.52;0.50;;;;;;;19.24;88.29;99578.09;335993;28;11885;-74
2023/09/02 00:26:03;;;;;;;0.50;0.50;;;;;;;19.24;88.53;99579.91;337979;28;4552;-74
2023/09/02 00:26:15;;;;;;;0.52;0.45;;;;;;;19.25;88.45;99576.31;337667;28;5245;-74
2023/09/02 00:26:32;;;;;;;0.57;0.40;;;;;;;19.27;88.33;99583.13;335709;28;17993;-75
2023/09/02 00:26:44;;;;;;;0.60;0.40;;;;;;;19.28;88.43;99581.38;335037;28;17682;-72
2023/09/02 00:26:56;;;;;;;0.60;0.40;;;;;;;19.27;88.51;99582.31;333260;28;4762;-73
2023/09/02 00:27:08;;;;;;;1.08;0.40;;;;;;;19.26;88.31;99580.63;337081;28;19389;-73
2023/09/02 00:27:20;;;;;;;1.80;0.50;;;;;;;19.27;88.12;99587.56;339317;28;5330;-72
2023/09/02 00:27:32;;;;;;;2.10;0.70;;;;;;;19.28;88.41;99579.56;337076;28;16797;-72
2023/09/02 00:27:44;;;;;;;0.88;0.70;;;;;;;19.27;88.14;99577.88;336495;28;7339;-72
2023/09/02 00:27:56;;;;;;;0.70;0.57;;;;;;;19.28;88.06;99579.56;339093;28;7525;-73
2023/09/02 00:28:08;;;;;;;0.93;0.50;;;;;;;19.29;87.98;99578.59;335902;28;18021;-73
2023/09/02 00:28:20;;;;;;;1.15;0.50;;;;;;;19.30;88.18;99576.84;338790;28;7211;-72
2023/09/02 00:28:32;;;;;;;1.20;0.50;;;;;;;19.31;88.03;99586.41;339429;28;5393;-72
2023/09/02 00:28:44;;;;;;;1.50;0.50;;;;;;;19.29;87.78;99580.41;337741;28;18247;-73
2023/09/02 00:28:56;;;;;;;1.35;0.50;;;;;;;19.28;87.88;99584.84;340507;28;5347;-72
2023/09/02 00:29:08;;;;;;;0.88;0.50;;;;;;;19.28;87.93;99584.00;336173;28;17738;-72
2023/09/02 00:29:20;;;;;;;0.80;0.60;;;;;;;19.25;88.00;99585.03;339631;28;4448;-73
2023/09/02 00:29:32;;;;;;;0.83;0.60;;;;;;;19.23;88.01;99586.09;339538;28;4531;-72
2023/09/02 00:29:44;;;;;;;0.55;0.52;;;;;;;19.23;88.33;99586.09;336949;28;17884;-72
2023/09/02 00:29:56;;;;;;;0.43;0.43;;;;;;;19.23;87.97;99586.09;340122;28;5284;-72
2023/09/02 00:30:08;;;;;;;0.40;0.40;;;;;;;19.24;88.06;99582.53;337130;28;11292;-72
2023/09/02 00:30:21;;;;;;;0.35;0.30;;;;;;;19.24;88.23;99579.91;339000;28;5286;-73
2023/09/02 00:30:33;;;;;;;0.50;0.40;;;;;;;19.23;88.25;99579.03;337583;28;16644;-72
2023/09/02 00:30:45;;;;;;;0.40;0.40;;;;;;;19.24;88.17;99593.06;339836;28;4471;-73
2023/09/02 00:30:57;;;;;;;0.40;0.40;;;;;;;19.25;88.30;99590.31;339866;28;4502;-73
2023/09/02 00:31:09;;;;;;;0.40;0.40;;;;;;;19.24;88.15;99585.16;337214;28;18159;-72
2023/09/02 00:31:21;;;;;;;0.40;0.40;;;;;;;19.21;88.25;99588.00;339798;28;4482;-72
2023/09/02 00:31:33;;;;;;;0.93;0.57;;;;;;;19.21;88.34;99583.56;340309;28;5356;-72
2023/09/02 00:31:46;;;;;;;0.98;0.60;;;;;;;19.21;88.38;99583.56;336543;28;18147;-73
2023/09/02 00:31:58;;;;;;;0.63;0.50;;;;;;;19.20;88.63;99587.16;341100;28;4643;-72
2023/09/02 00:32:10;;;;;;;0.70;0.50;;;;;;;19.20;88.64;99586.34;337660;28;17829;-72
2023/09/02 00:32:23;;;;;;;0.80;0.50;;;;;;;19.20;88.72;99581.06;339203;28;4527;-72
2023/09/02 00:32:35;;;;;;;0.70;0.50;;;;;;;19.18;88.84;99586.44;336034;28;18078;-72
2023/09/02 00:32:47;;;;;;;0.80;0.70;;;;;;;19.18;88.93;99582.97;330263;28;6176;-72
2023/09/02 00:32:59;;;;;;;0.80;0.75;;;;;;;19.19;88.86;99584.63;334709;28;17762;-72
2023/09/02 00:33:11;;;;;;;0.90;0.70;;;;;;;19.19;88.82;99589.91;338491;28;5395;-73
2023/09/02 00:33:23;;;;;;;0.68;0.50;;;;;;;19.18;89.03;99589.06;336825;28;6021;-73
2023/09/02 00:33:36;;;;;;;0.55;0.50;;;;;;;19.17;89.01;99584.72;337541;28;18784;-73
2023/09/02 00:33:48;;;;;;;0.52;0.50;;;;;;;19.16;89.02;99583.06;338834;28;4655;-74
2023/09/02 00:34:00;;;;;;;0.63;0.50;;;;;;;19.13;88.98;99581.47;335297;28;18708;-74
2023/09/02 00:34:12;;;;;;;2.50;0.40;;;;;;;19.10;89.20;99592.22;336872;28;5150;-74
2023/09/02 00:34:24;;;;;;;4.25;0.40;;;;;;;19.10;89.57;99597.50;332698;28;4576;-74
2023/09/02 00:34:36;;;;;;;4.30;0.50;;;;;;;19.08;89.56;99588.84;337230;28;18037;-74
2023/09/02 00:34:48;;;;;;;3.42;0.50;;;;;;;19.10;89.54;99580.84;339889;28;4836;-72
2023/09/02 00:35:00;;;;;;;1.77;0.50;;;;;;;19.11;89.34;99591.25;337729;28;19257;-73
2023/09/02 00:35:12;;;;;;;1.40;0.65;;;;;;;19.11;89.37;99583.38;339793;28;4531;-73
2023/09/02 00:35:24;;;;;;;1.00;0.70;;;;;;;19.14;89.30;99587.59;340260;28;5135;-73
2023/09/02 00:35:36;;;;;;;0.90;0.70;;;;;;;19.12;89.41;99585.06;333090;28;18178;-72
2023/09/02 00:35:49;;;;;;;0.85;0.50;;;;;;;19.13;89.38;99589.38;340401;28;5329;-74
2023/09/02 00:36:01;;;;;;;1.10;0.50;;;;;;;19.12;89.24;99590.34;337107;28;18030;-74
2023/09/02 00:36:14;;;;;;;1.10;0.50;;;;;;;19.12;89.31;99585.06;338819;28;5413;-73
2023/09/02 00:36:27;;;;;;;0.60;0.50;;;;;;;19.14;89.32;99582.31;336576;28;17848;-74
2023/09/02 00:36:39;;;;;;;0.85;0.60;;;;;;;19.15;89.28;99590.09;336421;28;11489;-73
2023/09/02 00:36:52;;;;;;;1.20;0.60;;;;;;;19.16;89.12;99586.53;338822;28;4477;-74
2023/09/02 00:37:05;;;;;;;1.52;0.55;;;;;;;19.18;89.06;99586.44;338583;28;4671;-73
2023/09/02 00:37:17;;;;;;;1.17;0.50;;;;;;;19.20;89.15;99586.34;331968;28;16473;-73
2023/09/02 00:37:29;;;;;;;0.52;0.50;;;;;;;19.20;89.21;99586.34;339426;28;4621;-72
2023/09/02 00:37:41;;;;;;;1.42;0.60;;;;;;;19.20;89.08;99591.59;337148;28;18230;-72
2023/09/02 00:37:53;;;;;;;1.40;0.60;;;;;;;19.20;89.05;99586.34;339993;28;4946;-73
2023/09/02 00:38:05;;;;;;;0.80;0.57;;;;;;;19.22;89.00;99589.72;339232;28;9518;-73
2023/09/02 00:38:17;;;;;;;0.63;0.45;;;;;;;19.21;89.09;99585.38;336267;28;18199;-72
2023/09/02 00:38:29;;;;;;;1.02;0.47;;;;;;;19.22;89.01;99590.53;339486;28;5468;-72
2023/09/02 00:38:41;;;;;;;2.58;0.50;;;;;;;19.23;88.93;99586.94;337987;28;4572;-72
2023/09/02 00:38:53;;;;;;;2.30;0.50;;;;;;;19.24;88.76;99593.06;339956;28;4467;-74
2023/09/02 00:39:05;;;;;;;2.17;0.50;;;;;;;19.24;88.90;99593.06;336716;28;11415;-74
2023/09/02 00:39:18;;;;;;;0.60;0.50;;;;;;;19.23;88.96;99589.56;339459;28;4555;-74
2023/09/02 00:39:30;;;;;;;0.50;0.50;;;;;;;19.25;88.59;99587.69;339794;28;4593;-74
2023/09/02 00:39:42;;;;;;;0.60;0.60;;;;;;;19.24;88.63;99588.66;337466;28;18859;-74
2023/09/02 00:39:54;;;;;;;0.68;0.60;;;;;;;19.27;88.58;99587.56;340164;28;4528;-74
2023/09/02 00:40:12;;;;;;;1.05;0.47;;;;;;;19.25;88.21;99590.31;339443;28;11023;-74
2023/09/02 00:40:27;;;;;;;3.83;0.60;;;;;;;19.25;88.48;99585.03;335690;28;17982;-74
2023/09/02 00:40:43;;;;;;;2.92;0.68;;;;;;;19.26;88.46;99596.44;336154;28;18569;-74
2023/09/02 00:41:00;;;;;;;0.60;0.50;;;;;;;19.26;88.15;99591.19;336155;28;18202;-74
2023/09/02 00:41:22;;;;;;;0.60;0.45;;;;;;;19.27;88.13;99587.56;337158;28;17703;-74
2023/09/02 00:41:46;;;;;;;0.50;0.45;;;;;;;19.25;87.91;99584.22;337318;28;17769;-73
2023/09/02 00:42:00;;;;;;;1.60;0.60;;;;;;;19.26;87.90;99589.38;337436;28;17342;-73
2023/09/02 00:42:16;;;;;;;1.50;0.60;;;;;;;19.26;87.83;99585.91;338030;28;4687;-72
2023/09/02 00:42:30;;;;;;;0.60;0.40;;;;;;;19.26;87.77;99591.19;336668;28;17909;-72
2023/09/02 00:42:43;;;;;;;0.50;0.40;;;;;;;19.25;87.82;99590.31;338812;28;5053;-73
2023/09/02 00:42:57;;;;;;;0.80;0.50;;;;;;;19.27;87.95;99584.94;336183;28;18212;-73
2023/09/02 00:43:09;;;;;;;0.70;0.40;;;;;;;19.28;88.10;99591.91;331411;28;18044;-72
2023/09/02 00:43:21;;;;;;;0.32;0.32;;;;;;;19.28;88.10;99584.00;339307;28;4594;-73
2023/09/02 00:43:33;;;;;;;0.40;0.40;;;;;;;19.28;88.10;99586.66;337874;28;17887;-74
2023/09/02 00:43:45;;;;;;;0.47;0.47;;;;;;;19.28;88.08;99591.91;340250;28;5162;-74
2023/09/02 00:43:59;;;;;;;1.50;0.63;;;;;;;19.25;88.06;99585.03;337605;28;10818;-74
2023/09/02 00:44:11;;;;;;;1.35;0.63;;;;;;;19.26;88.05;99585.91;339547;28;4713;-72
2023/09/02 00:44:23;;;;;;;1.20;0.50;;;;;;;19.28;87.97;99589.28;338737;28;17579;-72
2023/09/02 00:44:35;;;;;;;0.60;0.50;;;;;;;19.28;87.68;99589.28;337292;28;18132;-73
2023/09/02 00:44:47;;;;;;;0.60;0.60;;;;;;;19.27;87.72;99582.31;335271;28;4562;-74
2023/09/02 00:44:59;;;;;;;0.55;0.52;;;;;;;19.28;87.77;99584.00;336911;28;11636;-74
2023/09/02 00:45:11;;;;;;;2.78;0.43;;;;;;;19.29;87.65;99589.16;339364;28;4815;-74
2023/09/02 00:45:24;;;;;;;2.67;0.40;;;;;;;19.28;87.62;99579.56;336939;28;12156;-74
2023/09/02 00:45:36;;;;;;;0.50;0.50;;;;;;;19.30;87.60;99582.09;339699;28;6057;-74
2023/09/02 00:45:48;;;;;;;0.50;0.50;;;;;;;19.29;87.46;99575.13;339959;28;4640;-74
2023/09/02 00:46:00;;;;;;;0.50;0.50;;;;;;;19.29;87.43;99578.59;336729;28;18252;-74
2023/09/02 00:46:13;;;;;;;0.47;0.47;;;;;;;19.29;87.39;99585.69;340035;28;4641;-75
2023/09/02 00:46:25;;;;;;;0.40;0.40;;;;;;;19.29;87.49;99586.50;335850;28;18372;-74
2023/09/02 00:46:40;;;;;;;0.65;0.50;;;;;;;19.30;87.38;99585.56;337176;28;16025;-74
2023/09/02 00:46:53;;;;;;;0.90;0.60;;;;;;;19.28;87.44;99584.00;339868;28;4927;-75
2023/09/02 00:47:05;;;;;;;0.90;0.50;;;;;;;19.28;87.50;99584.84;337249;28;18753;-74
2023/09/02 00:47:18;;;;;;;2.13;0.52;;;;;;;19.29;87.02;99585.69;339297;28;5008;-74
2023/09/02 00:47:31;;;;;;;1.80;0.40;;;;;;;19.29;87.42;99585.69;337079;28;17924;-75
2023/09/02 00:47:44;;;;;;;0.68;0.40;;;;;;;19.28;87.35;99576.94;339857;28;4484;-74
2023/09/02 00:47:59;;;;;;;3.60;0.60;;;;;;;19.28;87.22;99578.75;337258;28;16810;-74
2023/09/02 00:48:12;;;;;;;3.90;0.60;;;;;;;19.27;87.24;99583.13;335613;28;17946;-74
2023/09/02 00:48:24;;;;;;;0.60;0.40;;;;;;;19.28;87.18;99589.28;339616;28;4572;-74
2023/09/02 00:48:36;;;;;;;0.55;0.40;;;;;;;19.26;87.37;99586.75;335919;28;18989;-74
2023/09/02 00:48:49;;;;;;;0.60;0.57;;;;;;;19.27;87.15;99584.94;338814;28;5676;-75
2023/09/02 00:49:01;;;;;;;0.52;0.50;;;;;;;19.26;87.30;99584.09;335905;28;18677;-74
2023/09/02 00:49:14;;;;;;;0.43;0.43;;;;;;;19.27;87.10;99582.31;337859;28;4584;-73
2023/09/02 00:49:26;;;;;;;0.47;0.43;;;;;;;19.25;87.08;99585.03;335203;28;12654;-74
2023/09/02 00:49:38;;;;;;;0.55;0.50;;;;;;;19.24;87.20;99578.09;337461;28;4700;-76
2023/09/02 00:49:50;;;;;;;0.50;0.45;;;;;;;19.26;87.12;99585.91;338598;28;4562;-74
2023/09/02 00:50:02;;;;;;;0.40;0.40;;;;;;;19.27;87.11;99583.13;336811;28;18291;-74
2023/09/02 00:50:14;;;;;;;0.40;0.40;;;;;;;19.26;87.13;99585.91;334663;28;4733;-76
2023/09/02 00:50:26;;;;;;;0.40;0.40;;;;;;;19.27;87.24;99582.31;335451;28;18038;-74
2023/09/02 00:50:38;;;;;;;0.50;0.43;;;;;;;19.26;87.16;99581.47;339155;28;4545;-76
2023/09/02 00:50:50;;;;;;;0.40;0.40;;;;;;;19.27;87.22;99582.31;338504;28;4987;-75
2023/09/02 00:51:03;;;;;;;0.47;0.47;;;;;;;19.29;87.18;99585.69;335245;28;18078;-75
2023/09/02 00:51:15;;;;;;;0.93;0.50;;;;;;;19.28;87.17;99584.00;338295;28;4873;-75
2023/09/02 00:51:27;;;;;;;1.17;0.50;;;;;;;19.29;87.14;99585.69;336695;28;19265;-74
2023/09/02 00:51:39;;;;;;;1.33;0.50;;;;;;;19.27;87.26;99583.13;338803;28;4567;-74
2023/09/02 00:51:51;;;;;;;0.65;0.40;;;;;;;19.28;87.12;99578.75;338690;28;4751;-74
2023/09/02 00:52:04;;;;;;;0.60;0.40;;;;;;;19.27;87.17;99582.31;336624;28;19356;-74
2023/09/02 00:52:18;;;;;;;0.45;0.45;;;;;;;19.26;87.28;99586.75;338181;28;5161;-74
2023/09/02 00:52:33;;;;;;;1.50;0.47;;;;;;;19.24;87.17;99582.53;332171;28;19561;-74
2023/09/02 00:52:47;;;;;;;2.40;0.50;;;;;;;19.24;87.18;99585.16;336593;28;17910;-74
2023/09/02 00:53:02;;;;;;;1.85;0.60;;;;;;;19.22;87.34;99582.63;335446;28;19265;-74
2023/09/02 00:53:14;;;;;;;1.00;0.52;;;;;;;19.20;87.36;99584.53;335777;28;18223;-74
2023/09/02 00:53:27;;;;;;;0.90;0.47;;;;;;;19.19;87.45;99579.38;339671;28;5327;-74
2023/09/02 00:53:38;;;;;;;0.80;0.50;;;;;;;19.19;87.46;99584.63;337640;28;18084;-74
2023/09/02 00:53:50;;;;;;;0.90;0.60;;;;;;;19.17;87.56;99579.47;336647;28;5153;-76
2023/09/02 00:54:03;;;;;;;2.50;0.60;;;;;;;19.16;87.63;99581.25;337263;28;11507;-76
2023/09/02 00:54:15;;;;;;;4.20;0.60;;;;;;;19.13;87.67;99581.47;339991;28;5289;-74
2023/09/02 00:54:27;;;;;;;4.30;0.60;;;;;;;19.12;87.75;99585.06;340490;28;5205;-75
2023/09/02 00:54:39;;;;;;;1.70;0.50;;;;;;;19.12;87.84;99581.59;336703;28;18046;-74
2023/09/02 00:54:51;;;;;;;0.93;0.52;;;;;;;19.10;88.01;99581.69;338916;28;4491;-76
2023/09/02 00:55:03;;;;;;;1.92;0.50;;;;;;;19.09;88.22;99585.25;339016;28;18067;-75
2023/09/02 00:55:15;;;;;;;1.90;0.50;;;;;;;19.09;88.01;99585.25;336943;28;17648;-74
2023/09/02 00:55:27;;;;;;;1.30;0.50;;;;;;;19.08;88.44;99580.97;338173;28;5379;-75
2023/09/02 00:55:39;;;;;;;0.50;0.40;;;;;;;19.08;88.07;99583.59;335848;28;5171;-74
2023/09/02 00:55:52;;;;;;;0.50;0.40;;;;;;;19.05;88.35;99582.94;338714;28;4584;-74
2023/09/02 00:56:04;;;;;;;0.82;0.50;;;;;;;19.01;88.40;99582.31;335746;28;18520;-74
2023/09/02 00:56:17;;;;;;;1.10;0.60;;;;;;;19.02;88.51;99580.53;337432;28;4501;-74
2023/09/02 00:56:31;;;;;;;0.70;0.60;;;;;;;19.03;88.36;99580.41;335108;28;16246;-74
2023/09/02 00:56:43;;;;;;;0.60;0.60;;;;;;;19.02;88.43;99580.53;338329;28;5230;-74
2023/09/02 00:56:55;;;;;;;0.60;0.60;;;;;;;19.04;88.44;99584.75;335135;28;18358;-74
2023/09/02 00:57:07;;;;;;;0.73;0.50;;;;;;;19.04;88.39;99583.91;337718;28;18398;-74
2023/09/02 00:57:20;;;;;;;0.70;0.40;;;;;;;19.05;88.58;99577.69;336103;28;11578;-74
2023/09/02 00:57:32;;;;;;;0.60;0.40;;;;;;;19.03;88.64;99585.69;339789;28;5156;-74
2023/09/02 00:57:44;;;;;;;0.40;0.40;;;;;;;19.04;88.73;99576.00;338804;28;4915;-74
2023/09/02 00:57:59;;;;;;;0.70;0.43;;;;;;;19.04;88.73;99587.38;336772;28;18143;-74
2023/09/02 00:58:11;;;;;;;0.70;0.40;;;;;;;19.03;88.70;99579.59;336963;28;18139;-74
2023/09/02 00:58:23;;;;;;;0.43;0.43;;;;;;;19.03;88.83;99580.41;338672;28;4559;-74
2023/09/02 00:58:35;;;;;;;0.40;0.40;;;;;;;19.03;88.81;99577.78;334831;28;4690;-73
2023/09/02 00:58:47;;;;;;;0.47;0.40;;;;;;;19.04;88.67;99578.66;336695;28;19239;-74
2023/09/02 00:59:03;;;;;;;0.52;0.43;;;;;;;19.00;88.81;99575.38;339878;28;5204;-74
2023/09/02 00:59:15;;;;;;;0.50;0.50;;;;;;;19.02;88.67;99584.00;336783;28;17932;-73
2023/09/02 00:59:27;;;;;;;0.60;0.50;;;;;;;19.01;88.67;99574.41;337055;28;17594;-73
2023/09/02 00:59:39;;;;;;;0.60;0.50;;;;;;;19.01;88.57;99582.31;339623;28;4555;-73
2023/09/02 00:59:51;;;;;;;0.65;0.47;;;;;;;19.03;88.74;99582.22;339641;28;4572;-72
2023/09/02 01:00:04;;;;;;;0.70;0.60;;;;;;;19.00;88.67;99583.28;336017;28;17713;-72